sensor_id;sensor_type;location;lat;lon;timestamp;temperature;humidity
9425;DHT22;17139;52.140;11.636;2022-09-09T00:01:43;14.30;70.40
9425;DHT22;17139;52.140;11.636;2022-09-09T00:04:23;14.20;69.50
9425;DHT22;17139;52.140;11.636;2022-09-09T00:07:00;14.00;69.50
9425;DHT22;17139;52.140;11.636;2022-09-09T00:09:30;13.90;69.90
9425;DHT22;17139;52.140;11.636;2022-09-09T00:12:02;13.80;70.00
9425;DHT22;17139;52.140;11.636;2022-09-09T00:14:39;13.80;70.10
9425;DHT22;17139;52.140;11.636;2022-09-09T00:17:12;13.80;70.20
9425;DHT22;17139;52.140;11.636;2022-09-09T00:19:46;13.90;70.60
9425;DHT22;17139;52.140;11.636;2022-09-09T00:22:18;13.90;69.80
9425;DHT22;17139;52.140;11.636;2022-09-09T00:24:48;14.60;69.90
9425;DHT22;17139;52.140;11.636;2022-09-09T00:27:28;14.30;69.00
9425;DHT22;17139;52.140;11.636;2022-09-09T00:30:00;14.10;69.50
9425;DHT22;17139;52.140;11.636;2022-09-09T00:32:30;13.90;69.70
9425;DHT22;17139;52.140;11.636;2022-09-09T00:35:03;13.80;70.00
9425;DHT22;17139;52.140;11.636;2022-09-09T00:37:31;13.70;70.10
9425;DHT22;17139;52.140;11.636;2022-09-09T00:40:01;13.70;70.30
9425;DHT22;17139;52.140;11.636;2022-09-09T00:42:38;14.00;70.60
9425;DHT22;17139;52.140;11.636;2022-09-09T00:45:18;14.00;69.60
9425;DHT22;17139;52.140;11.636;2022-09-09T00:47:51;14.40;69.70
9425;DHT22;17139;52.140;11.636;2022-09-09T00:50:42;14.10;69.20
9425;DHT22;17139;52.140;11.636;2022-09-09T00:53:22;14.00;69.40
9425;DHT22;17139;52.140;11.636;2022-09-09T00:55:56;13.80;69.90
9425;DHT22;17139;52.140;11.636;2022-09-09T00:58:26;13.70;70.20
9425;DHT22;17139;52.140;11.636;2022-09-09T01:00:59;13.60;70.30
9425;DHT22;17139;52.140;11.636;2022-09-09T01:03:34;13.60;70.40
9425;DHT22;17139;52.140;11.636;2022-09-09T01:06:14;13.50;70.40
9425;DHT22;17139;52.140;11.636;2022-09-09T01:09:04;13.50;70.30
9425;DHT22;17139;52.140;11.636;2022-09-09T01:11:41;14.10;69.60
9425;DHT22;17139;52.140;11.636;2022-09-09T01:14:20;13.80;69.20
9425;DHT22;17139;52.140;11.636;2022-09-09T01:16:51;13.70;69.70
9425;DHT22;17139;52.140;11.636;2022-09-09T01:19:31;13.50;70.00
9425;DHT22;17139;52.140;11.636;2022-09-09T01:22:06;13.50;70.20
9425;DHT22;17139;52.140;11.636;2022-09-09T01:24:40;13.40;70.30
9425;DHT22;17139;52.140;11.636;2022-09-09T01:27:12;13.40;70.40
9425;DHT22;17139;52.140;11.636;2022-09-09T01:29:40;14.10;70.30
9425;DHT22;17139;52.140;11.636;2022-09-09T01:32:38;13.90;69.30
9425;DHT22;17139;52.140;11.636;2022-09-09T01:35:08;13.80;69.50
9425;DHT22;17139;52.140;11.636;2022-09-09T01:37:36;13.70;69.90
9425;DHT22;17139;52.140;11.636;2022-09-09T01:40:04;13.60;69.90
9425;DHT22;17139;52.140;11.636;2022-09-09T01:42:33;13.60;70.10
9425;DHT22;17139;52.140;11.636;2022-09-09T01:45:00;13.50;70.10
9425;DHT22;17139;52.140;11.636;2022-09-09T01:47:27;13.50;70.10
9425;DHT22;17139;52.140;11.636;2022-09-09T01:49:54;13.50;70.10
9425;DHT22;17139;52.140;11.636;2022-09-09T01:52:21;13.70;70.50
9425;DHT22;17139;52.140;11.636;2022-09-09T01:54:48;13.70;69.60
9425;DHT22;17139;52.140;11.636;2022-09-09T01:57:18;14.30;69.60
9425;DHT22;17139;52.140;11.636;2022-09-09T01:59:56;14.10;68.90
9425;DHT22;17139;52.140;11.636;2022-09-09T02:02:30;13.80;69.20
9425;DHT22;17139;52.140;11.636;2022-09-09T02:05:09;13.60;69.70
9425;DHT22;17139;52.140;11.636;2022-09-09T02:07:39;13.50;69.80
9425;DHT22;17139;52.140;11.636;2022-09-09T02:10:11;13.50;70.20
9425;DHT22;17139;52.140;11.636;2022-09-09T02:12:42;13.40;70.20
9425;DHT22;17139;52.140;11.636;2022-09-09T02:15:18;13.80;71.30
9425;DHT22;17139;52.140;11.636;2022-09-09T02:17:49;13.70;69.60
9425;DHT22;17139;52.140;11.636;2022-09-09T02:20:18;14.10;69.70
9425;DHT22;17139;52.140;11.636;2022-09-09T02:22:49;13.90;69.20
9425;DHT22;17139;52.140;11.636;2022-09-09T02:25:19;13.70;69.50
9425;DHT22;17139;52.140;11.636;2022-09-09T02:27:50;13.50;69.80
9425;DHT22;17139;52.140;11.636;2022-09-09T02:30:19;13.50;70.10
9425;DHT22;17139;52.140;11.636;2022-09-09T02:32:50;13.40;70.20
9425;DHT22;17139;52.140;11.636;2022-09-09T02:35:21;13.30;70.30
9425;DHT22;17139;52.140;11.636;2022-09-09T02:37:54;13.30;70.40
9425;DHT22;17139;52.140;11.636;2022-09-09T02:40:22;13.20;70.30
9425;DHT22;17139;52.140;11.636;2022-09-09T02:42:49;13.50;71.30
9425;DHT22;17139;52.140;11.636;2022-09-09T02:45:20;13.40;69.60
9425;DHT22;17139;52.140;11.636;2022-09-09T02:47:55;13.30;69.90
9425;DHT22;17139;52.140;11.636;2022-09-09T02:50:28;13.20;70.20
9425;DHT22;17139;52.140;11.636;2022-09-09T02:53:06;13.10;70.20
9425;DHT22;17139;52.140;11.636;2022-09-09T02:55:39;13.10;70.40
9425;DHT22;17139;52.140;11.636;2022-09-09T02:58:09;13.00;70.50
9425;DHT22;17139;52.140;11.636;2022-09-09T03:00:39;13.00;70.40
9425;DHT22;17139;52.140;11.636;2022-09-09T03:03:07;13.90;69.50
9425;DHT22;17139;52.140;11.636;2022-09-09T03:05:35;13.70;69.00
9425;DHT22;17139;52.140;11.636;2022-09-09T03:08:02;13.40;69.30
9425;DHT22;17139;52.140;11.636;2022-09-09T03:10:31;13.30;69.70
9425;DHT22;17139;52.140;11.636;2022-09-09T03:12:58;13.10;69.80
9425;DHT22;17139;52.140;11.636;2022-09-09T03:15:25;13.10;70.20
9425;DHT22;17139;52.140;11.636;2022-09-09T03:17:56;13.00;70.20
9425;DHT22;17139;52.140;11.636;2022-09-09T03:20:23;13.00;70.40
9425;DHT22;17139;52.140;11.636;2022-09-09T03:22:51;12.90;70.30
9425;DHT22;17139;52.140;11.636;2022-09-09T03:25:19;12.90;70.40
9425;DHT22;17139;52.140;11.636;2022-09-09T03:27:46;13.80;69.80
9425;DHT22;17139;52.140;11.636;2022-09-09T03:30:13;13.50;69.00
9425;DHT22;17139;52.140;11.636;2022-09-09T03:32:41;14.10;69.00
9425;DHT22;17139;52.140;11.636;2022-09-09T03:35:09;13.70;68.70
9425;DHT22;17139;52.140;11.636;2022-09-09T03:37:36;13.40;69.30
9425;DHT22;17139;52.140;11.636;2022-09-09T03:40:05;13.30;69.80
9425;DHT22;17139;52.140;11.636;2022-09-09T03:42:32;13.20;70.30
9425;DHT22;17139;52.140;11.636;2022-09-09T03:44:59;13.20;70.40
9425;DHT22;17139;52.140;11.636;2022-09-09T03:47:26;13.20;70.60
9425;DHT22;17139;52.140;11.636;2022-09-09T03:49:53;13.20;70.50
9425;DHT22;17139;52.140;11.636;2022-09-09T03:52:21;14.10;70.00
9425;DHT22;17139;52.140;11.636;2022-09-09T03:54:50;13.90;69.20
9425;DHT22;17139;52.140;11.636;2022-09-09T03:57:19;13.60;69.30
9425;DHT22;17139;52.140;11.636;2022-09-09T03:59:47;13.60;69.70
9425;DHT22;17139;52.140;11.636;2022-09-09T04:02:14;13.50;69.90
9425;DHT22;17139;52.140;11.636;2022-09-09T04:04:41;13.40;70.00
9425;DHT22;17139;52.140;11.636;2022-09-09T04:07:08;13.40;70.00
9425;DHT22;17139;52.140;11.636;2022-09-09T04:09:36;13.40;70.10
9425;DHT22;17139;52.140;11.636;2022-09-09T04:12:03;13.40;70.20
9425;DHT22;17139;52.140;11.636;2022-09-09T04:14:30;13.50;70.60
9425;DHT22;17139;52.140;11.636;2022-09-09T04:16:57;13.50;70.00
9425;DHT22;17139;52.140;11.636;2022-09-09T04:19:25;13.70;70.40
9425;DHT22;17139;52.140;11.636;2022-09-09T04:21:52;13.60;69.50
9425;DHT22;17139;52.140;11.636;2022-09-09T04:24:19;13.60;69.70
9425;DHT22;17139;52.140;11.636;2022-09-09T04:26:48;13.50;69.90
9425;DHT22;17139;52.140;11.636;2022-09-09T04:29:15;14.00;70.00
9425;DHT22;17139;52.140;11.636;2022-09-09T04:31:43;13.80;69.20
9425;DHT22;17139;52.140;11.636;2022-09-09T04:34:10;14.30;69.00
9425;DHT22;17139;52.140;11.636;2022-09-09T04:36:37;14.00;68.60
9425;DHT22;17139;52.140;11.636;2022-09-09T04:39:05;13.80;69.20
9425;DHT22;17139;52.140;11.636;2022-09-09T04:41:32;13.70;69.10
9425;DHT22;17139;52.140;11.636;2022-09-09T04:44:01;13.50;69.60
9425;DHT22;17139;52.140;11.636;2022-09-09T04:46:29;14.20;69.30
9425;DHT22;17139;52.140;11.636;2022-09-09T04:48:56;13.90;68.90
9425;DHT22;17139;52.140;11.636;2022-09-09T04:51:23;13.70;69.40
9425;DHT22;17139;52.140;11.636;2022-09-09T04:53:50;13.50;69.80
9425;DHT22;17139;52.140;11.636;2022-09-09T04:56:19;13.40;70.10
9425;DHT22;17139;52.140;11.636;2022-09-09T04:58:46;13.40;70.30
9425;DHT22;17139;52.140;11.636;2022-09-09T05:01:16;13.30;70.40
9425;DHT22;17139;52.140;11.636;2022-09-09T05:03:44;13.30;70.40
9425;DHT22;17139;52.140;11.636;2022-09-09T05:06:13;13.20;70.40
9425;DHT22;17139;52.140;11.636;2022-09-09T05:08:42;13.20;70.50
9425;DHT22;17139;52.140;11.636;2022-09-09T05:11:16;13.20;70.50
9425;DHT22;17139;52.140;11.636;2022-09-09T05:13:44;13.30;70.60
9425;DHT22;17139;52.140;11.636;2022-09-09T05:16:11;13.30;70.50
9425;DHT22;17139;52.140;11.636;2022-09-09T05:18:39;13.80;70.60
9425;DHT22;17139;52.140;11.636;2022-09-09T05:21:08;13.70;69.50
9425;DHT22;17139;52.140;11.636;2022-09-09T05:23:35;14.40;69.30
9425;DHT22;17139;52.140;11.636;2022-09-09T05:26:03;14.20;69.10
9425;DHT22;17139;52.140;11.636;2022-09-09T05:28:31;14.00;69.60
9425;DHT22;17139;52.140;11.636;2022-09-09T05:31:01;13.90;70.20
9425;DHT22;17139;52.140;11.636;2022-09-09T05:33:30;13.90;71.90
9425;DHT22;17139;52.140;11.636;2022-09-09T05:36:01;14.10;71.40
9425;DHT22;17139;52.140;11.636;2022-09-09T05:38:28;14.20;70.70
9425;DHT22;17139;52.140;11.636;2022-09-09T05:40:55;15.20;69.30
9425;DHT22;17139;52.140;11.636;2022-09-09T05:43:23;15.00;68.70
9425;DHT22;17139;52.140;11.636;2022-09-09T05:45:59;14.90;69.00
9425;DHT22;17139;52.140;11.636;2022-09-09T05:48:28;14.90;69.30
9425;DHT22;17139;52.140;11.636;2022-09-09T05:50:56;14.90;69.30
9425;DHT22;17139;52.140;11.636;2022-09-09T05:53:24;15.00;69.50
9425;DHT22;17139;52.140;11.636;2022-09-09T05:55:58;15.00;69.50
9425;DHT22;17139;52.140;11.636;2022-09-09T05:58:26;15.10;69.40
9425;DHT22;17139;52.140;11.636;2022-09-09T06:00:53;15.20;69.20
9425;DHT22;17139;52.140;11.636;2022-09-09T06:03:26;15.70;68.20
9425;DHT22;17139;52.140;11.636;2022-09-09T06:05:57;15.60;67.90
9425;DHT22;17139;52.140;11.636;2022-09-09T06:08:26;15.50;68.30
9425;DHT22;17139;52.140;11.636;2022-09-09T06:10:53;15.30;68.40
9425;DHT22;17139;52.140;11.636;2022-09-09T06:13:21;15.30;68.60
9425;DHT22;17139;52.140;11.636;2022-09-09T06:15:50;15.30;68.70
9425;DHT22;17139;52.140;11.636;2022-09-09T06:18:17;15.30;68.80
9425;DHT22;17139;52.140;11.636;2022-09-09T06:20:53;15.20;68.80
9425;DHT22;17139;52.140;11.636;2022-09-09T06:23:20;15.20;68.80
9425;DHT22;17139;52.140;11.636;2022-09-09T06:25:49;15.60;68.70
9425;DHT22;17139;52.140;11.636;2022-09-09T06:28:16;15.60;68.30
9425;DHT22;17139;52.140;11.636;2022-09-09T06:30:44;16.00;67.80
9425;DHT22;17139;52.140;11.636;2022-09-09T06:33:11;15.80;67.60
9425;DHT22;17139;52.140;11.636;2022-09-09T06:35:38;15.60;68.00
9425;DHT22;17139;52.140;11.636;2022-09-09T06:38:05;15.40;68.40
9425;DHT22;17139;52.140;11.636;2022-09-09T06:40:34;15.30;68.70
9425;DHT22;17139;52.140;11.636;2022-09-09T06:43:02;15.30;69.70
9425;DHT22;17139;52.140;11.636;2022-09-09T06:45:29;15.30;69.00
9425;DHT22;17139;52.140;11.636;2022-09-09T06:47:56;15.20;69.90
9425;DHT22;17139;52.140;11.636;2022-09-09T06:50:23;15.90;68.50
9425;DHT22;17139;52.140;11.636;2022-09-09T06:52:50;15.80;68.30
9425;DHT22;17139;52.140;11.636;2022-09-09T06:55:18;16.40;67.20
9425;DHT22;17139;52.140;11.636;2022-09-09T06:57:46;16.20;67.30
9425;DHT22;17139;52.140;11.636;2022-09-09T07:00:15;16.00;67.80
9425;DHT22;17139;52.140;11.636;2022-09-09T07:02:42;16.00;68.30
9425;DHT22;17139;52.140;11.636;2022-09-09T07:05:10;15.90;68.30
9425;DHT22;17139;52.140;11.636;2022-09-09T07:07:37;15.90;69.20
9425;DHT22;17139;52.140;11.636;2022-09-09T07:10:05;15.90;68.50
9425;DHT22;17139;52.140;11.636;2022-09-09T07:12:33;15.90;68.70
9425;DHT22;17139;52.140;11.636;2022-09-09T07:15:00;15.90;68.60
9425;DHT22;17139;52.140;11.636;2022-09-09T07:17:28;16.00;68.70
9425;DHT22;17139;52.140;11.636;2022-09-09T07:19:55;16.00;68.40
9425;DHT22;17139;52.140;11.636;2022-09-09T07:22:23;16.00;68.60
9425;DHT22;17139;52.140;11.636;2022-09-09T07:24:50;16.00;68.70
9425;DHT22;17139;52.140;11.636;2022-09-09T07:27:17;16.00;68.70
9425;DHT22;17139;52.140;11.636;2022-09-09T07:29:44;16.10;68.80
9425;DHT22;17139;52.140;11.636;2022-09-09T07:32:12;16.10;68.70
9425;DHT22;17139;52.140;11.636;2022-09-09T07:34:40;16.20;68.60
9425;DHT22;17139;52.140;11.636;2022-09-09T07:37:07;16.70;67.90
9425;DHT22;17139;52.140;11.636;2022-09-09T07:39:40;16.60;67.50
9425;DHT22;17139;52.140;11.636;2022-09-09T07:42:07;17.50;65.90
9425;DHT22;17139;52.140;11.636;2022-09-09T07:44:35;17.30;67.20
9425;DHT22;17139;52.140;11.636;2022-09-09T07:47:03;17.20;67.80
9425;DHT22;17139;52.140;11.636;2022-09-09T07:49:30;17.10;67.00
9425;DHT22;17139;52.140;11.636;2022-09-09T07:51:58;17.20;67.10
9425;DHT22;17139;52.140;11.636;2022-09-09T07:54:25;17.20;67.90
9425;DHT22;17139;52.140;11.636;2022-09-09T07:56:53;17.30;67.30
9425;DHT22;17139;52.140;11.636;2022-09-09T07:59:20;17.40;67.10
9425;DHT22;17139;52.140;11.636;2022-09-09T08:01:49;17.60;66.70
9425;DHT22;17139;52.140;11.636;2022-09-09T08:04:21;17.60;66.40
9425;DHT22;17139;52.140;11.636;2022-09-09T08:06:50;17.70;66.30
9425;DHT22;17139;52.140;11.636;2022-09-09T08:09:20;17.70;66.20
9425;DHT22;17139;52.140;11.636;2022-09-09T08:11:48;17.70;66.10
9425;DHT22;17139;52.140;11.636;2022-09-09T08:14:15;17.70;66.20
9425;DHT22;17139;52.140;11.636;2022-09-09T08:16:44;17.70;67.00
9425;DHT22;17139;52.140;11.636;2022-09-09T08:19:11;17.80;66.50
9425;DHT22;17139;52.140;11.636;2022-09-09T08:21:41;17.90;66.30
9425;DHT22;17139;52.140;11.636;2022-09-09T08:24:09;18.80;62.20
9425;DHT22;17139;52.140;11.636;2022-09-09T08:26:39;19.50;60.90
9425;DHT22;17139;52.140;11.636;2022-09-09T08:29:09;19.20;62.60
9425;DHT22;17139;52.140;11.636;2022-09-09T08:31:37;19.80;60.30
9425;DHT22;17139;52.140;11.636;2022-09-09T08:34:06;19.50;61.80
9425;DHT22;17139;52.140;11.636;2022-09-09T08:36:35;19.30;62.90
9425;DHT22;17139;52.140;11.636;2022-09-09T08:39:04;19.30;63.30
9425;DHT22;17139;52.140;11.636;2022-09-09T08:41:48;19.40;63.40
9425;DHT22;17139;52.140;11.636;2022-09-09T08:44:25;19.50;64.10
9425;DHT22;17139;52.140;11.636;2022-09-09T08:47:01;19.50;63.70
9425;DHT22;17139;52.140;11.636;2022-09-09T08:49:46;19.80;61.70
9425;DHT22;17139;52.140;11.636;2022-09-09T08:52:18;19.80;63.10
9425;DHT22;17139;52.140;11.636;2022-09-09T08:54:46;19.80;62.90
9425;DHT22;17139;52.140;11.636;2022-09-09T08:57:20;19.70;62.90
9425;DHT22;17139;52.140;11.636;2022-09-09T08:59:49;19.70;63.10
9425;DHT22;17139;52.140;11.636;2022-09-09T09:02:21;19.70;63.30
9425;DHT22;17139;52.140;11.636;2022-09-09T09:04:59;19.90;62.00
9425;DHT22;17139;52.140;11.636;2022-09-09T09:07:39;19.90;62.60
9425;DHT22;17139;52.140;11.636;2022-09-09T09:10:15;20.10;60.40
9425;DHT22;17139;52.140;11.636;2022-09-09T09:12:44;19.90;61.70
9425;DHT22;17139;52.140;11.636;2022-09-09T09:15:18;19.80;62.40
9425;DHT22;17139;52.140;11.636;2022-09-09T09:17:46;19.70;62.60
9425;DHT22;17139;52.140;11.636;2022-09-09T09:20:16;19.60;62.90
9425;DHT22;17139;52.140;11.636;2022-09-09T09:22:48;19.50;62.80
9425;DHT22;17139;52.140;11.636;2022-09-09T09:25:19;19.50;63.10
9425;DHT22;17139;52.140;11.636;2022-09-09T09:28:02;20.10;60.20
9425;DHT22;17139;52.140;11.636;2022-09-09T09:30:35;20.10;60.00
9425;DHT22;17139;52.140;11.636;2022-09-09T09:33:06;19.80;61.70
9425;DHT22;17139;52.140;11.636;2022-09-09T09:35:35;19.70;62.30
9425;DHT22;17139;52.140;11.636;2022-09-09T09:38:13;19.60;62.70
9425;DHT22;17139;52.140;11.636;2022-09-09T09:40:49;19.60;62.80
9425;DHT22;17139;52.140;11.636;2022-09-09T09:43:24;19.60;63.10
9425;DHT22;17139;52.140;11.636;2022-09-09T09:45:51;19.60;63.20
9425;DHT22;17139;52.140;11.636;2022-09-09T09:48:18;20.40;59.20
9425;DHT22;17139;52.140;11.636;2022-09-09T09:50:50;20.20;60.30
9425;DHT22;17139;52.140;11.636;2022-09-09T09:53:25;20.00;61.30
9425;DHT22;17139;52.140;11.636;2022-09-09T09:55:58;19.90;62.10
9425;DHT22;17139;52.140;11.636;2022-09-09T09:58:30;19.80;62.50
9425;DHT22;17139;52.140;11.636;2022-09-09T10:01:00;19.90;62.70
9425;DHT22;17139;52.140;11.636;2022-09-09T10:03:28;19.90;62.80
9425;DHT22;17139;52.140;11.636;2022-09-09T10:05:56;19.90;62.80
9425;DHT22;17139;52.140;11.636;2022-09-09T10:08:25;20.00;61.80
9425;DHT22;17139;52.140;11.636;2022-09-09T10:11:23;20.10;62.20
9425;DHT22;17139;52.140;11.636;2022-09-09T10:14:03;20.40;60.00
9425;DHT22;17139;52.140;11.636;2022-09-09T10:16:41;20.00;61.20
9425;DHT22;17139;52.140;11.636;2022-09-09T10:19:15;19.80;62.00
9425;DHT22;17139;52.140;11.636;2022-09-09T10:22:04;19.60;62.50
9425;DHT22;17139;52.140;11.636;2022-09-09T10:24:49;19.50;62.70
9425;DHT22;17139;52.140;11.636;2022-09-09T10:27:22;19.40;63.10
9425;DHT22;17139;52.140;11.636;2022-09-09T10:30:06;19.50;63.30
9425;DHT22;17139;52.140;11.636;2022-09-09T10:32:41;19.60;62.90
9425;DHT22;17139;52.140;11.636;2022-09-09T10:35:14;19.80;62.90
9425;DHT22;17139;52.140;11.636;2022-09-09T10:38:01;19.90;62.20
9425;DHT22;17139;52.140;11.636;2022-09-09T10:40:33;20.10;62.90
9425;DHT22;17139;52.140;11.636;2022-09-09T10:43:08;20.20;61.60
9425;DHT22;17139;52.140;11.636;2022-09-09T10:45:47;20.30;61.10
9425;DHT22;17139;52.140;11.636;2022-09-09T10:48:35;20.30;61.30
9425;DHT22;17139;52.140;11.636;2022-09-09T10:51:17;20.40;61.50
9425;DHT22;17139;52.140;11.636;2022-09-09T10:54:00;20.40;61.40
9425;DHT22;17139;52.140;11.636;2022-09-09T10:56:36;20.40;61.20
9425;DHT22;17139;52.140;11.636;2022-09-09T10:59:07;21.20;57.00
9425;DHT22;17139;52.140;11.636;2022-09-09T11:01:43;20.90;59.10
9425;DHT22;17139;52.140;11.636;2022-09-09T11:04:17;20.70;60.30
9425;DHT22;17139;52.140;11.636;2022-09-09T11:06:49;20.60;61.50
9425;DHT22;17139;52.140;11.636;2022-09-09T11:09:21;20.50;60.80
9425;DHT22;17139;52.140;11.636;2022-09-09T11:11:52;20.40;61.00
9425;DHT22;17139;52.140;11.636;2022-09-09T11:14:26;20.40;61.30
9425;DHT22;17139;52.140;11.636;2022-09-09T11:16:59;21.20;57.50
9425;DHT22;17139;52.140;11.636;2022-09-09T11:19:32;20.90;59.30
9425;DHT22;17139;52.140;11.636;2022-09-09T11:22:02;20.70;60.10
9425;DHT22;17139;52.140;11.636;2022-09-09T11:24:35;20.60;60.70
9425;DHT22;17139;52.140;11.636;2022-09-09T11:27:09;20.70;60.80
9425;DHT22;17139;52.140;11.636;2022-09-09T11:30:12;20.80;60.90
9425;DHT22;17139;52.140;11.636;2022-09-09T11:32:57;21.00;60.80
9425;DHT22;17139;52.140;11.636;2022-09-09T11:35:52;21.00;60.10
9425;DHT22;17139;52.140;11.636;2022-09-09T11:38:25;21.10;60.50
9425;DHT22;17139;52.140;11.636;2022-09-09T11:41:01;21.70;57.00
9425;DHT22;17139;52.140;11.636;2022-09-09T11:43:32;21.60;58.60
9425;DHT22;17139;52.140;11.636;2022-09-09T11:46:02;21.60;59.20
9425;DHT22;17139;52.140;11.636;2022-09-09T11:48:32;21.60;59.20
9425;DHT22;17139;52.140;11.636;2022-09-09T11:51:03;21.60;59.20
9425;DHT22;17139;52.140;11.636;2022-09-09T11:53:31;21.70;59.30
9425;DHT22;17139;52.140;11.636;2022-09-09T11:56:26;21.80;59.10
9425;DHT22;17139;52.140;11.636;2022-09-09T11:58:59;22.60;55.40
9425;DHT22;17139;52.140;11.636;2022-09-09T12:01:35;22.50;55.10
9425;DHT22;17139;52.140;11.636;2022-09-09T12:04:13;22.40;56.70
9425;DHT22;17139;52.140;11.636;2022-09-09T12:06:45;22.20;57.30
9425;DHT22;17139;52.140;11.636;2022-09-09T12:09:19;22.10;57.30
9425;DHT22;17139;52.140;11.636;2022-09-09T12:11:49;22.10;57.80
9425;DHT22;17139;52.140;11.636;2022-09-09T12:14:34;22.00;58.00
9425;DHT22;17139;52.140;11.636;2022-09-09T12:17:10;22.00;58.00
9425;DHT22;17139;52.140;11.636;2022-09-09T12:19:46;22.70;53.20
9425;DHT22;17139;52.140;11.636;2022-09-09T12:22:20;22.60;56.10
9425;DHT22;17139;52.140;11.636;2022-09-09T12:24:53;22.70;56.00
9425;DHT22;17139;52.140;11.636;2022-09-09T12:27:26;22.80;56.30
9425;DHT22;17139;52.140;11.636;2022-09-09T12:29:59;22.90;56.50
9425;DHT22;17139;52.140;11.636;2022-09-09T12:32:28;23.00;56.80
9425;DHT22;17139;52.140;11.636;2022-09-09T12:34:59;23.10;56.90
9425;DHT22;17139;52.140;11.636;2022-09-09T12:37:32;23.20;56.70
9425;DHT22;17139;52.140;11.636;2022-09-09T12:40:01;23.80;52.40
9425;DHT22;17139;52.140;11.636;2022-09-09T12:42:29;23.60;54.30
9425;DHT22;17139;52.140;11.636;2022-09-09T12:45:00;24.00;50.00
9425;DHT22;17139;52.140;11.636;2022-09-09T12:47:38;23.70;53.20
9425;DHT22;17139;52.140;11.636;2022-09-09T12:50:19;23.50;54.50
9425;DHT22;17139;52.140;11.636;2022-09-09T12:52:48;23.40;55.20
9425;DHT22;17139;52.140;11.636;2022-09-09T12:55:20;23.30;55.40
9425;DHT22;17139;52.140;11.636;2022-09-09T12:57:51;23.30;55.40
9425;DHT22;17139;52.140;11.636;2022-09-09T13:00:21;23.40;55.40
9425;DHT22;17139;52.140;11.636;2022-09-09T13:02:51;23.50;55.40
9425;DHT22;17139;52.140;11.636;2022-09-09T13:05:22;23.80;52.10
9425;DHT22;17139;52.140;11.636;2022-09-09T13:07:49;23.70;53.80
9425;DHT22;17139;52.140;11.636;2022-09-09T13:10:23;23.60;55.00
9425;DHT22;17139;52.140;11.636;2022-09-09T13:12:52;23.50;55.00
9425;DHT22;17139;52.140;11.636;2022-09-09T13:15:22;23.40;55.40
9425;DHT22;17139;52.140;11.636;2022-09-09T13:17:56;23.40;55.40
9425;DHT22;17139;52.140;11.636;2022-09-09T13:20:27;23.60;53.70
9425;DHT22;17139;52.140;11.636;2022-09-09T13:22:57;23.40;55.00
9425;DHT22;17139;52.140;11.636;2022-09-09T13:25:26;23.80;51.80
9425;DHT22;17139;52.140;11.636;2022-09-09T13:27:55;23.60;54.00
9425;DHT22;17139;52.140;11.636;2022-09-09T13:30:26;23.40;54.90
9425;DHT22;17139;52.140;11.636;2022-09-09T13:33:18;23.30;55.40
9425;DHT22;17139;52.140;11.636;2022-09-09T13:35:51;23.20;55.70
9425;DHT22;17139;52.140;11.636;2022-09-09T13:38:19;23.10;56.20
9425;DHT22;17139;52.140;11.636;2022-09-09T13:40:55;23.00;56.40
9425;DHT22;17139;52.140;11.636;2022-09-09T13:43:25;23.00;56.50
9425;DHT22;17139;52.140;11.636;2022-09-09T13:45:54;23.10;54.80
9425;DHT22;17139;52.140;11.636;2022-09-09T13:48:21;22.90;55.20
9425;DHT22;17139;52.140;11.636;2022-09-09T13:50:56;22.60;55.60
9425;DHT22;17139;52.140;11.636;2022-09-09T13:53:24;22.40;55.30
9425;DHT22;17139;52.140;11.636;2022-09-09T13:55:51;22.10;55.90
9425;DHT22;17139;52.140;11.636;2022-09-09T13:58:18;22.10;56.20
9425;DHT22;17139;52.140;11.636;2022-09-09T14:00:47;22.20;56.20
9425;DHT22;17139;52.140;11.636;2022-09-09T14:03:15;22.80;52.00
9425;DHT22;17139;52.140;11.636;2022-09-09T14:05:46;22.70;54.10
9425;DHT22;17139;52.140;11.636;2022-09-09T14:08:33;23.30;50.20
9425;DHT22;17139;52.140;11.636;2022-09-09T14:11:02;23.10;52.80
9425;DHT22;17139;52.140;11.636;2022-09-09T14:13:30;22.70;53.90
9425;DHT22;17139;52.140;11.636;2022-09-09T14:15:57;22.60;54.60
9425;DHT22;17139;52.140;11.636;2022-09-09T14:18:24;22.60;55.00
9425;DHT22;17139;52.140;11.636;2022-09-09T14:20:52;22.80;54.40
9425;DHT22;17139;52.140;11.636;2022-09-09T14:23:19;23.60;50.00
9425;DHT22;17139;52.140;11.636;2022-09-09T14:25:50;23.40;52.10
9425;DHT22;17139;52.140;11.636;2022-09-09T14:28:17;23.60;50.20
9425;DHT22;17139;52.140;11.636;2022-09-09T14:30:44;23.20;52.70
9425;DHT22;17139;52.140;11.636;2022-09-09T14:33:13;23.70;49.90
9425;DHT22;17139;52.140;11.636;2022-09-09T14:35:41;23.20;52.30
9425;DHT22;17139;52.140;11.636;2022-09-09T14:38:08;23.70;50.10
9425;DHT22;17139;52.140;11.636;2022-09-09T14:40:36;23.50;52.00
9425;DHT22;17139;52.140;11.636;2022-09-09T14:43:05;23.80;50.30
9425;DHT22;17139;52.140;11.636;2022-09-09T14:45:32;23.70;51.80
9425;DHT22;17139;52.140;11.636;2022-09-09T14:47:59;23.50;52.60
9425;DHT22;17139;52.140;11.636;2022-09-09T14:50:27;23.30;53.40
9425;DHT22;17139;52.140;11.636;2022-09-09T14:52:54;23.10;53.70
9425;DHT22;17139;52.140;11.636;2022-09-09T14:55:21;23.10;54.10
9425;DHT22;17139;52.140;11.636;2022-09-09T14:57:48;23.40;50.80
9425;DHT22;17139;52.140;11.636;2022-09-09T15:00:17;23.10;52.80
9425;DHT22;17139;52.140;11.636;2022-09-09T15:02:44;23.50;49.70
9425;DHT22;17139;52.140;11.636;2022-09-09T15:05:12;23.10;51.90
9425;DHT22;17139;52.140;11.636;2022-09-09T15:07:40;23.00;53.00
9425;DHT22;17139;52.140;11.636;2022-09-09T15:10:08;22.80;53.20
9425;DHT22;17139;52.140;11.636;2022-09-09T15:12:36;23.30;49.20
9425;DHT22;17139;52.140;11.636;2022-09-09T15:15:05;23.00;51.50
9425;DHT22;17139;52.140;11.636;2022-09-09T15:17:39;22.60;52.60
9425;DHT22;17139;52.140;11.636;2022-09-09T15:20:07;22.70;50.50
9425;DHT22;17139;52.140;11.636;2022-09-09T15:22:36;22.40;52.40
9425;DHT22;17139;52.140;11.636;2022-09-09T15:25:04;22.20;53.00
9425;DHT22;17139;52.140;11.636;2022-09-09T15:27:33;22.20;53.40
9425;DHT22;17139;52.140;11.636;2022-09-09T15:30:00;22.20;53.60
9425;DHT22;17139;52.140;11.636;2022-09-09T15:32:28;22.20;53.80
9425;DHT22;17139;52.140;11.636;2022-09-09T15:34:57;22.40;52.30
9425;DHT22;17139;52.140;11.636;2022-09-09T15:37:32;22.30;52.90
9425;DHT22;17139;52.140;11.636;2022-09-09T15:39:59;22.60;49.90
9425;DHT22;17139;52.140;11.636;2022-09-09T15:42:26;22.50;51.80
9425;DHT22;17139;52.140;11.636;2022-09-09T15:44:55;22.90;48.50
9425;DHT22;17139;52.140;11.636;2022-09-09T15:47:23;22.60;50.80
9425;DHT22;17139;52.140;11.636;2022-09-09T15:49:50;22.40;51.60
9425;DHT22;17139;52.140;11.636;2022-09-09T15:52:18;22.30;52.20
9425;DHT22;17139;52.140;11.636;2022-09-09T15:54:45;23.00;48.40